createdAt,value
2022-11-06T00:01:18.357Z,9.10
2022-11-06T00:03:53.093Z,9.14
2022-11-06T00:06:43.535Z,9.15
2022-11-06T00:09:17.905Z,9.17
2022-11-06T00:11:50.760Z,9.25
2022-11-06T00:14:22.188Z,9.26
2022-11-06T00:16:53.456Z,9.32
2022-11-06T00:19:24.824Z,9.35
2022-11-06T00:21:56.091Z,9.37
2022-11-06T00:24:27.398Z,9.34
2022-11-06T00:26:58.660Z,9.41
2022-11-06T00:29:29.896Z,9.44
2022-11-06T00:32:01.329Z,9.45
2022-11-06T00:34:32.625Z,9.40
2022-11-06T00:37:03.885Z,9.46
2022-11-06T00:39:35.223Z,9.47
2022-11-06T00:42:06.499Z,9.48
2022-11-06T00:44:37.731Z,9.44
2022-11-06T00:47:09.005Z,9.49
2022-11-06T00:49:40.356Z,9.48
2022-11-06T00:52:11.669Z,9.44
2022-11-06T00:54:42.957Z,9.41
2022-11-06T00:57:14.222Z,9.45
2022-11-06T00:59:45.466Z,9.41
2022-11-06T01:02:19.442Z,9.37
2022-11-06T01:04:50.878Z,9.31
2022-11-06T01:07:22.226Z,9.34
2022-11-06T01:09:53.728Z,9.31
2022-11-06T01:12:24.997Z,9.31
2022-11-06T01:14:56.262Z,9.31
2022-11-06T01:17:28.841Z,9.27
2022-11-06T01:20:00.102Z,9.31
2022-11-06T01:22:31.371Z,9.29
2022-11-06T01:25:03.019Z,9.32
2022-11-06T01:27:34.340Z,9.34
2022-11-06T01:30:06.295Z,9.35
2022-11-06T01:32:37.571Z,9.41
2022-11-06T01:35:09.056Z,9.43
2022-11-06T01:37:40.315Z,9.46
2022-11-06T01:40:11.574Z,9.51
2022-11-06T01:42:42.832Z,9.54
2022-11-06T01:45:26.583Z,9.56
2022-11-06T01:47:57.917Z,9.56
2022-11-06T01:50:29.582Z,9.55
2022-11-06T01:53:02.385Z,9.60
2022-11-06T01:55:39.641Z,9.62
2022-11-06T01:58:15.067Z,9.64
2022-11-06T02:00:48.128Z,9.66
2022-11-06T02:03:19.646Z,9.67
2022-11-06T02:05:52.376Z,9.67
2022-11-06T02:08:24.389Z,9.67
2022-11-06T02:10:55.970Z,9.69
2022-11-06T02:13:43.266Z,9.71
2022-11-06T02:16:48.896Z,9.74
2022-11-06T02:19:43.524Z,9.75
2022-11-06T02:22:46.977Z,9.75
2022-11-06T02:25:59.689Z,9.76
2022-11-06T02:28:42.581Z,9.74
2022-11-06T02:31:20.220Z,9.74
2022-11-06T02:34:08.236Z,9.72
2022-11-06T02:36:50.390Z,9.73
2022-11-06T02:39:27.114Z,9.70
2022-11-06T02:42:00.502Z,9.72
2022-11-06T02:44:34.104Z,9.74
2022-11-06T02:47:09.640Z,9.73
2022-11-06T02:49:55.027Z,9.76
2022-11-06T02:52:32.557Z,9.78
2022-11-06T02:55:29.912Z,9.79
2022-11-06T02:58:08.083Z,9.78
2022-11-06T03:00:43.933Z,9.79
2022-11-06T03:03:24.036Z,9.81
2022-11-06T03:06:32.238Z,9.79
2022-11-06T03:09:12.572Z,9.75
2022-11-06T03:11:45.111Z,9.71
2022-11-06T03:14:26.657Z,9.67
2022-11-06T03:17:05.868Z,9.70
2022-11-06T03:19:52.058Z,9.64
2022-11-06T03:22:32.580Z,9.68
2022-11-06T03:25:15.946Z,9.74
2022-11-06T03:28:03.460Z,9.71
2022-11-06T03:30:38.971Z,9.67
2022-11-06T03:33:15.205Z,9.71
2022-11-06T03:36:00.312Z,9.75
2022-11-06T03:38:41.843Z,9.73
2022-11-06T03:41:25.437Z,9.67
2022-11-06T03:43:59.411Z,9.71
2022-11-06T03:46:32.852Z,9.69
2022-11-06T03:49:11.547Z,9.68
2022-11-06T03:52:13.461Z,9.75
2022-11-06T03:54:55.051Z,9.76
2022-11-06T03:57:40.064Z,9.78
2022-11-06T04:00:12.417Z,9.76
2022-11-06T04:02:50.383Z,9.70
2022-11-06T04:05:24.417Z,9.65
2022-11-06T04:08:15.798Z,9.58
2022-11-06T04:11:11.190Z,9.55
2022-11-06T04:14:01.799Z,9.50
2022-11-06T04:16:41.134Z,9.49
2022-11-06T04:19:18.039Z,9.43
2022-11-06T04:22:11.097Z,9.50
2022-11-06T04:25:18.172Z,9.52
2022-11-06T04:28:26.102Z,9.55
2022-11-06T04:31:00.332Z,9.56
2022-11-06T04:33:57.464Z,9.58
2022-11-06T04:36:47.502Z,9.55
2022-11-06T04:39:28.664Z,9.61
2022-11-06T04:42:07.853Z,9.62
2022-11-06T04:44:50.191Z,9.59
2022-11-06T04:47:23.895Z,9.55
2022-11-06T04:49:57.968Z,9.51
2022-11-06T04:52:29.765Z,9.43
2022-11-06T04:55:01.369Z,9.36
2022-11-06T04:57:32.632Z,9.27
2022-11-06T05:00:04.668Z,9.18
2022-11-06T05:02:35.945Z,9.05
2022-11-06T05:05:08.131Z,9.02
2022-11-06T05:07:39.434Z,8.97
2022-11-06T05:10:10.747Z,8.94
2022-11-06T05:12:42.016Z,8.93
2022-11-06T05:15:13.282Z,8.87
2022-11-06T05:17:44.565Z,8.85
2022-11-06T05:20:15.905Z,8.83
2022-11-06T05:23:00.552Z,8.79
2022-11-06T05:25:34.735Z,8.74
2022-11-06T05:28:07.899Z,8.69
2022-11-06T05:30:39.148Z,8.59
2022-11-06T05:33:10.400Z,8.60
2022-11-06T05:35:41.665Z,8.56
2022-11-06T05:38:13.457Z,8.52
2022-11-06T05:40:45.017Z,8.52
2022-11-06T05:43:16.281Z,8.53
2022-11-06T05:45:47.535Z,8.52
2022-11-06T05:48:18.843Z,8.53
2022-11-06T05:50:50.154Z,8.57
2022-11-06T05:53:21.417Z,8.63
2022-11-06T05:55:52.652Z,8.70
2022-11-06T05:58:23.913Z,8.74
2022-11-06T06:00:55.629Z,8.79
2022-11-06T06:03:27.142Z,8.84
2022-11-06T06:05:58.415Z,8.87
2022-11-06T06:08:29.697Z,8.88
2022-11-06T06:11:00.939Z,8.81
2022-11-06T06:13:32.251Z,8.84
2022-11-06T06:16:04.004Z,8.85
2022-11-06T06:18:35.375Z,8.90
2022-11-06T06:21:06.636Z,8.92
2022-11-06T06:23:37.875Z,8.99
2022-11-06T06:26:09.775Z,9.07
2022-11-06T06:28:41.093Z,9.07
2022-11-06T06:31:12.433Z,9.15
2022-11-06T06:33:43.768Z,9.20
2022-11-06T06:36:15.732Z,9.17
2022-11-06T06:38:47.096Z,9.17
2022-11-06T06:41:18.437Z,9.16
2022-11-06T06:43:50.286Z,9.10
2022-11-06T06:46:21.595Z,9.05
2022-11-06T06:48:52.926Z,9.04
2022-11-06T06:51:24.415Z,9.08
2022-11-06T06:53:55.849Z,9.11
2022-11-06T06:56:27.112Z,9.18
2022-11-06T06:58:58.454Z,9.26
2022-11-06T07:01:29.939Z,9.35
2022-11-06T07:04:04.147Z,9.41
2022-11-06T07:06:35.928Z,9.50
2022-11-06T07:09:07.263Z,9.57
2022-11-06T07:11:38.608Z,9.52
2022-11-06T07:14:10.777Z,9.68
2022-11-06T07:16:42.014Z,9.66
2022-11-06T07:19:13.274Z,9.73
2022-11-06T07:21:44.513Z,9.77
2022-11-06T07:24:18.013Z,9.80
2022-11-06T07:26:49.833Z,9.88
2022-11-06T07:29:21.203Z,9.92
2022-11-06T07:31:52.456Z,9.98
2022-11-06T07:34:23.812Z,10.03
2022-11-06T07:36:55.058Z,10.10
2022-11-06T07:39:26.349Z,10.16
2022-11-06T07:41:57.676Z,10.24
2022-11-06T07:44:29.025Z,10.27
2022-11-06T07:47:00.469Z,10.31
2022-11-06T07:49:31.719Z,10.29
2022-11-06T07:52:04.889Z,10.38
2022-11-06T07:54:36.254Z,10.41
2022-11-06T07:57:07.489Z,10.45
2022-11-06T07:59:38.947Z,10.49
2022-11-06T08:02:13.736Z,10.56
2022-11-06T08:04:45.088Z,10.63
2022-11-06T08:07:16.358Z,10.69
2022-11-06T08:09:47.604Z,10.76
2022-11-06T08:12:18.877Z,10.81
2022-11-06T08:14:50.219Z,10.83
2022-11-06T08:17:21.523Z,10.91
2022-11-06T08:19:52.812Z,10.94
2022-11-06T08:22:24.111Z,10.98
2022-11-06T08:24:55.414Z,11.02
2022-11-06T08:27:27.973Z,11.10
2022-11-06T08:29:59.333Z,11.16
2022-11-06T08:32:30.699Z,11.17
2022-11-06T08:35:02.012Z,11.29
2022-11-06T08:37:33.348Z,11.39
2022-11-06T08:40:05.241Z,11.46
2022-11-06T08:42:36.688Z,11.51
2022-11-06T08:45:08.850Z,11.67
2022-11-06T08:47:40.196Z,11.77
2022-11-06T08:50:11.482Z,11.78
2022-11-06T08:52:42.764Z,11.89
2022-11-06T08:55:14.084Z,12.00
2022-11-06T08:57:45.357Z,12.13
2022-11-06T09:00:16.773Z,12.24
2022-11-06T09:02:48.035Z,12.34
2022-11-06T09:05:19.279Z,12.42
2022-11-06T09:07:50.578Z,12.50
2022-11-06T09:10:21.999Z,12.52
2022-11-06T09:12:53.342Z,12.64
2022-11-06T09:15:24.671Z,12.69
2022-11-06T09:17:56.102Z,12.82
2022-11-06T09:20:28.966Z,12.86
2022-11-06T09:23:02.521Z,12.92
2022-11-06T09:25:34.233Z,12.94
2022-11-06T09:28:05.517Z,12.93
2022-11-06T09:30:36.866Z,12.99
2022-11-06T09:33:13.277Z,13.00
2022-11-06T09:35:45.075Z,13.04
2022-11-06T09:38:16.540Z,13.06
2022-11-06T09:41:00.263Z,13.10
2022-11-06T09:44:08.484Z,13.15
2022-11-06T09:46:45.526Z,13.13
2022-11-06T09:49:28.661Z,13.14
2022-11-06T09:52:13.118Z,13.22
2022-11-06T09:54:56.099Z,13.30
2022-11-06T09:57:47.669Z,13.41
2022-11-06T10:00:19.392Z,13.41
2022-11-06T10:02:56.602Z,13.43
2022-11-06T10:05:34.007Z,13.33
2022-11-06T10:08:12.967Z,13.44
2022-11-06T10:11:14.860Z,13.45
2022-11-06T10:14:08.081Z,13.53
2022-11-06T10:16:55.378Z,13.60
2022-11-06T10:19:39.707Z,13.69
2022-11-06T10:22:25.314Z,13.89
2022-11-06T10:25:05.776Z,14.16
2022-11-06T10:27:41.699Z,14.40
2022-11-06T10:30:15.930Z,14.46
2022-11-06T10:33:20.076Z,14.44
2022-11-06T10:36:02.555Z,14.39
2022-11-06T10:38:37.571Z,14.35
2022-11-06T10:41:26.437Z,14.28
2022-11-06T10:44:02.391Z,14.32
2022-11-06T10:46:42.752Z,14.30
2022-11-06T10:49:23.572Z,14.29
2022-11-06T10:52:13.374Z,14.26
2022-11-06T10:54:57.204Z,14.23
2022-11-06T10:57:43.484Z,14.19
2022-11-06T11:00:15.933Z,14.16
2022-11-06T11:02:51.299Z,14.15
2022-11-06T11:05:25.950Z,14.16
2022-11-06T11:07:57.192Z,14.22
2022-11-06T11:10:34.735Z,14.23
2022-11-06T11:13:08.705Z,14.21
2022-11-06T11:15:47.519Z,14.22
2022-11-06T11:18:24.252Z,14.18
2022-11-06T11:21:06.138Z,14.21
2022-11-06T11:23:37.496Z,14.24
2022-11-06T11:26:22.262Z,14.25
2022-11-06T11:29:11.661Z,14.34
2022-11-06T11:31:50.022Z,14.35
2022-11-06T11:34:24.825Z,14.38
2022-11-06T11:37:00.060Z,14.43
2022-11-06T11:39:36.651Z,14.38
2022-11-06T11:42:32.084Z,14.34
2022-11-06T11:45:09.647Z,14.39
2022-11-06T11:47:43.251Z,14.43
2022-11-06T11:50:29.868Z,14.48
2022-11-06T11:53:09.871Z,14.53
2022-11-06T11:55:46.089Z,14.51
2022-11-06T11:58:27.688Z,14.54
2022-11-06T12:01:03.027Z,14.60
2022-11-06T12:03:41.731Z,14.64
2022-11-06T12:06:16.075Z,14.71
2022-11-06T12:08:52.086Z,14.80
2022-11-06T12:11:30.062Z,14.83
2022-11-06T12:14:27.515Z,14.93
2022-11-06T12:17:20.896Z,14.87
2022-11-06T12:19:55.685Z,14.79
2022-11-06T12:22:34.513Z,14.69
2022-11-06T12:25:14.916Z,14.82
2022-11-06T12:27:57.371Z,14.89
2022-11-06T12:30:32.802Z,15.05
2022-11-06T12:33:15.885Z,15.25
2022-11-06T12:35:52.889Z,15.38
2022-11-06T12:38:24.546Z,15.58
2022-11-06T12:41:04.346Z,15.59
2022-11-06T12:43:45.688Z,15.56
2022-11-06T12:46:26.031Z,15.51
2022-11-06T12:49:28.359Z,15.60
2022-11-06T12:52:27.517Z,15.60
2022-11-06T12:55:31.005Z,15.55
2022-11-06T12:58:23.404Z,15.52
2022-11-06T13:01:09.176Z,15.49
2022-11-06T13:03:43.537Z,15.51
2022-11-06T13:06:39.544Z,15.45
2022-11-06T13:09:26.512Z,15.43
2022-11-06T13:12:22.143Z,15.39
2022-11-06T13:15:08.665Z,15.35
2022-11-06T13:17:50.740Z,15.33
2022-11-06T13:20:33.257Z,15.32
2022-11-06T13:23:13.628Z,15.28
2022-11-06T13:25:56.668Z,15.24
2022-11-06T13:28:37.712Z,15.24
2022-11-06T13:31:13.506Z,15.15
2022-11-06T13:33:54.467Z,15.19
2022-11-06T13:36:28.116Z,15.10
2022-11-06T13:39:15.612Z,15.04
2022-11-06T13:41:46.980Z,15.05
2022-11-06T13:44:20.960Z,15.00
2022-11-06T13:47:08.895Z,14.95
2022-11-06T13:50:06.411Z,14.89
2022-11-06T13:52:46.240Z,14.77
2022-11-06T13:55:51.357Z,14.72
2022-11-06T13:58:48.743Z,14.61
2022-11-06T14:01:26.204Z,14.51
2022-11-06T14:04:16.500Z,14.49
2022-11-06T14:06:56.241Z,14.49
2022-11-06T14:09:32.761Z,14.49
2022-11-06T14:12:15.174Z,14.44
2022-11-06T14:14:47.990Z,14.35
2022-11-06T14:17:24.181Z,14.30
2022-11-06T14:19:55.530Z,14.26
2022-11-06T14:22:31.707Z,14.15
2022-11-06T14:25:21.778Z,14.12
2022-11-06T14:27:53.090Z,14.03
2022-11-06T14:30:50.297Z,13.98
2022-11-06T14:33:40.327Z,13.94
2022-11-06T14:36:24.602Z,13.87
2022-11-06T14:38:56.281Z,13.85
2022-11-06T14:41:33.705Z,13.85
2022-11-06T14:44:15.666Z,13.84
2022-11-06T14:46:53.172Z,13.73
2022-11-06T14:49:46.214Z,13.78
2022-11-06T14:52:18.443Z,13.72
2022-11-06T14:55:03.492Z,13.66
2022-11-06T14:57:44.868Z,13.63
2022-11-06T15:00:37.943Z,13.54
2022-11-06T15:03:49.837Z,13.41
2022-11-06T15:06:33.169Z,13.42
2022-11-06T15:09:13.183Z,13.36
2022-11-06T15:12:02.556Z,13.28
2022-11-06T15:14:33.846Z,13.20
2022-11-06T15:17:15.798Z,13.14
2022-11-06T15:20:05.615Z,13.03
2022-11-06T15:22:48.380Z,12.97
2022-11-06T15:25:23.070Z,12.86
2022-11-06T15:28:17.570Z,12.85
2022-11-06T15:31:02.259Z,12.79
2022-11-06T15:34:08.784Z,12.73
2022-11-06T15:36:43.416Z,12.62
2022-11-06T15:39:23.136Z,12.56
2022-11-06T15:41:55.446Z,12.46
2022-11-06T15:44:27.102Z,12.43
2022-11-06T15:46:59.155Z,12.36
2022-11-06T15:49:30.457Z,12.31
2022-11-06T15:52:03.496Z,12.26
2022-11-06T15:54:43.951Z,12.19
2022-11-06T15:57:21.960Z,12.12
2022-11-06T16:00:15.896Z,12.09
2022-11-06T16:02:59.229Z,12.05
2022-11-06T16:05:34.637Z,12.05
2022-11-06T16:08:06.703Z,11.96
2022-11-06T16:10:38.941Z,11.99
2022-11-06T16:13:13.369Z,11.95
2022-11-06T16:15:50.001Z,11.94
2022-11-06T16:18:26.790Z,11.89
2022-11-06T16:21:13.563Z,11.78
2022-11-06T16:24:09.461Z,11.78
2022-11-06T16:26:49.297Z,11.71
2022-11-06T16:29:26.618Z,11.65
2022-11-06T16:32:04.708Z,11.61
2022-11-06T16:34:38.546Z,11.57
2022-11-06T16:37:36.621Z,11.56
2022-11-06T16:40:48.086Z,11.53
2022-11-06T16:43:21.663Z,11.52
2022-11-06T16:45:58.089Z,11.48
2022-11-06T16:48:32.104Z,11.47
2022-11-06T16:51:09.675Z,11.44
2022-11-06T16:53:49.040Z,11.44
2022-11-06T16:56:26.737Z,11.42
2022-11-06T16:59:06.080Z,11.42
2022-11-06T17:01:40.224Z,11.39
2022-11-06T17:04:23.635Z,11.35
2022-11-06T17:06:55.943Z,11.30
2022-11-06T17:09:33.428Z,11.24
2022-11-06T17:12:10.492Z,11.20
2022-11-06T17:14:43.500Z,11.16
2022-11-06T17:17:25.878Z,11.13
2022-11-06T17:19:57.248Z,11.09
2022-11-06T17:22:28.997Z,11.09
2022-11-06T17:25:00.310Z,11.03
2022-11-06T17:27:31.670Z,11.05
2022-11-06T17:30:03.683Z,11.03
2022-11-06T17:32:35.056Z,11.01
2022-11-06T17:35:07.822Z,10.93
2022-11-06T17:37:39.191Z,10.97
2022-11-06T17:40:11.221Z,10.95
2022-11-06T17:42:42.759Z,10.92
2022-11-06T17:45:14.042Z,10.89
2022-11-06T17:47:45.459Z,10.88
2022-11-06T17:50:16.788Z,10.87
2022-11-06T17:52:48.129Z,10.84
2022-11-06T17:55:19.436Z,10.86
2022-11-06T17:57:50.682Z,10.81
2022-11-06T18:00:23.020Z,10.88
2022-11-06T18:03:02.514Z,10.84
2022-11-06T18:05:35.881Z,10.88
2022-11-06T18:08:12.438Z,10.84
2022-11-06T18:10:43.927Z,10.89
2022-11-06T18:13:15.307Z,10.90
2022-11-06T18:15:46.680Z,10.87
2022-11-06T18:18:17.929Z,10.91
2022-11-06T18:20:49.999Z,10.88
2022-11-06T18:23:21.461Z,10.94
2022-11-06T18:25:57.097Z,10.95
2022-11-06T18:28:28.381Z,10.92
2022-11-06T18:31:00.139Z,10.96
2022-11-06T18:33:31.498Z,10.97
2022-11-06T18:36:05.006Z,10.98
2022-11-06T18:38:37.217Z,10.98
2022-11-06T18:41:13.981Z,10.99
2022-11-06T18:43:46.029Z,10.99
2022-11-06T18:46:18.915Z,11.00
2022-11-06T18:48:50.246Z,10.99
2022-11-06T18:51:34.422Z,11.00
2022-11-06T18:54:09.253Z,10.95
2022-11-06T18:56:40.693Z,10.94
2022-11-06T18:59:19.469Z,10.99
2022-11-06T19:01:51.024Z,10.99
2022-11-06T19:04:22.537Z,10.98
2022-11-06T19:06:54.140Z,10.93
2022-11-06T19:09:25.631Z,10.99
2022-11-06T19:11:56.948Z,11.00
2022-11-06T19:14:28.361Z,11.00
2022-11-06T19:16:59.658Z,10.99
2022-11-06T19:19:31.026Z,11.01
2022-11-06T19:22:02.336Z,11.01
2022-11-06T19:24:33.676Z,11.01
2022-11-06T19:27:05.428Z,11.00
2022-11-06T19:29:36.814Z,11.01
2022-11-06T19:32:08.147Z,10.93
2022-11-06T19:34:39.551Z,11.01
2022-11-06T19:37:10.870Z,11.00
2022-11-06T19:39:42.214Z,11.01
2022-11-06T19:42:13.524Z,11.00
2022-11-06T19:44:44.907Z,11.03
2022-11-06T19:47:16.236Z,10.95
2022-11-06T19:49:47.576Z,11.04
2022-11-06T19:52:42.328Z,11.05
2022-11-06T19:55:26.337Z,11.01
2022-11-06T19:57:58.886Z,11.04
2022-11-06T20:00:30.342Z,11.04
2022-11-06T20:03:02.016Z,11.06
2022-11-06T20:05:33.523Z,11.08
2022-11-06T20:08:05.774Z,11.10
2022-11-06T20:10:37.657Z,11.11
2022-11-06T20:13:09.365Z,11.13
2022-11-06T20:15:40.692Z,11.09
2022-11-06T20:18:11.977Z,11.17
2022-11-06T20:20:43.277Z,11.17
2022-11-06T20:23:15.245Z,11.15
2022-11-06T20:25:46.850Z,11.10
2022-11-06T20:28:18.145Z,11.04
2022-11-06T20:30:49.817Z,10.97
2022-11-06T20:33:21.412Z,10.90
2022-11-06T20:35:52.718Z,10.84
2022-11-06T20:38:25.629Z,10.74
2022-11-06T20:40:57.001Z,10.65
2022-11-06T20:43:28.319Z,10.55
2022-11-06T20:46:01.199Z,10.42
2022-11-06T20:48:33.373Z,10.36
2022-11-06T20:51:10.629Z,10.27
2022-11-06T20:53:42.308Z,10.20
2022-11-06T20:56:16.565Z,10.12
2022-11-06T20:58:48.413Z,10.01
2022-11-06T21:01:22.794Z,9.98
2022-11-06T21:03:55.993Z,9.91
2022-11-06T21:06:29.097Z,9.86
2022-11-06T21:09:00.524Z,9.82
2022-11-06T21:11:32.256Z,9.77
2022-11-06T21:14:03.928Z,9.67
2022-11-06T21:16:36.319Z,9.67
2022-11-06T21:19:07.684Z,9.65
2022-11-06T21:21:39.113Z,9.66
2022-11-06T21:24:10.548Z,9.61
2022-11-06T21:26:42.476Z,9.60
2022-11-06T21:29:13.743Z,9.56
2022-11-06T21:31:49.020Z,9.54
2022-11-06T21:34:21.096Z,9.54
2022-11-06T21:36:52.376Z,9.51
2022-11-06T21:39:23.830Z,9.42
2022-11-06T21:41:55.160Z,9.49
2022-11-06T21:44:26.411Z,9.44
2022-11-06T21:46:57.678Z,9.44
2022-11-06T21:49:29.014Z,9.42
2022-11-06T21:52:22.842Z,9.40
2022-11-06T21:55:15.260Z,9.41
2022-11-06T21:57:47.082Z,9.40
2022-11-06T22:00:18.446Z,9.33
2022-11-06T22:02:51.208Z,9.41
2022-11-06T22:05:23.190Z,9.41
2022-11-06T22:07:54.429Z,9.35
2022-11-06T22:10:27.645Z,9.41
2022-11-06T22:12:59.077Z,9.41
2022-11-06T22:15:30.492Z,9.45
2022-11-06T22:18:01.828Z,9.47
2022-11-06T22:20:33.094Z,9.45
2022-11-06T22:23:04.364Z,9.45
2022-11-06T22:25:38.923Z,9.48
2022-11-06T22:28:10.263Z,9.40
2022-11-06T22:30:41.644Z,9.48
2022-11-06T22:33:13.318Z,9.38
2022-11-06T22:35:44.802Z,9.47
2022-11-06T22:38:16.085Z,9.48
2022-11-06T22:40:54.854Z,9.48
2022-11-06T22:43:27.275Z,9.50
2022-11-06T22:46:07.293Z,9.51
2022-11-06T22:48:38.752Z,9.48
2022-11-06T22:51:16.731Z,9.53
2022-11-06T22:53:50.132Z,9.52
2022-11-06T22:56:23.355Z,9.59
2022-11-06T22:59:00.977Z,9.61
2022-11-06T23:01:36.149Z,9.57
2022-11-06T23:04:14.886Z,9.63
2022-11-06T23:06:46.558Z,9.54
2022-11-06T23:09:17.809Z,9.66
2022-11-06T23:11:49.169Z,9.52
2022-11-06T23:14:20.445Z,9.68
2022-11-06T23:16:57.937Z,9.70
2022-11-06T23:19:31.350Z,9.66
2022-11-06T23:22:21.096Z,9.78
2022-11-06T23:24:52.577Z,9.81
2022-11-06T23:27:24.511Z,9.84
2022-11-06T23:30:00.354Z,9.87
2022-11-06T23:32:33.741Z,9.89
2022-11-06T23:35:11.642Z,9.87
2022-11-06T23:37:44.761Z,9.94
2022-11-06T23:40:16.107Z,9.90
2022-11-06T23:42:51.239Z,9.98
2022-11-06T23:45:41.448Z,10.01
2022-11-06T23:48:13.536Z,10.02
2022-11-06T23:50:46.911Z,9.93
2022-11-06T23:53:18.658Z,10.03
2022-11-06T23:55:50.060Z,10.09
2022-11-06T23:58:21.385Z,10.11
